Terminal Aerodrome Forecast
Issued by NWS

Home | Current Version | Previous Version | Text Only | Print | Product List | Glossary On
Versions: 1 2 3 4 5 6 7 8 9 10 11 12 13 14 15 16 17
000
FTUS46 KSEW 012300
TAFBLI
TAF
KBLI 012325Z 0200/0224 17012G24KT P6SM BKN030 BKN040
      TEMPO 0200/0203 -RA OVC025
     FM021200 14004KT 4SM BR OVC025
     FM021600 10007KT P6SM SCT040 BKN080 OVC130
     FM022100 06009KT 5SM -RA BR OVC020=

USA.gov is the U.S. government's official web portal to all federal, state and local government web resources and services.